createdAt,value
2023-04-15T00:01:55.034Z,79.45
2023-04-15T00:04:57.602Z,80.18
2023-04-15T00:08:01.498Z,80.24
2023-04-15T00:11:06.051Z,79.66
2023-04-15T00:14:08.651Z,79.30
2023-04-15T00:17:11.028Z,78.92
2023-04-15T00:20:13.605Z,78.74
2023-04-15T00:23:16.106Z,79.14
2023-04-15T00:26:20.023Z,78.69
2023-04-15T00:29:25.332Z,79.78
2023-04-15T00:32:28.148Z,78.99
2023-04-15T00:35:32.870Z,78.82
2023-04-15T00:38:36.765Z,78.92
2023-04-15T00:41:39.826Z,79.01
2023-04-15T00:44:42.854Z,79.26
2023-04-15T00:47:46.141Z,79.04
2023-04-15T00:50:48.615Z,79.36
2023-04-15T00:53:52.163Z,79.51
2023-04-15T00:56:54.901Z,79.33
2023-04-15T00:59:57.921Z,78.68
2023-04-15T01:03:00.774Z,79.30
2023-04-15T01:06:04.212Z,79.07
2023-04-15T01:09:07.026Z,79.09
2023-04-15T01:12:13.061Z,78.91
2023-04-15T01:15:16.310Z,79.38
2023-04-15T01:18:19.497Z,79.38
2023-04-15T01:21:22.156Z,78.91
2023-04-15T01:24:27.245Z,78.24
2023-04-15T01:27:31.409Z,79.64
2023-04-15T01:30:37.128Z,79.70
2023-04-15T01:33:41.141Z,79.25
2023-04-15T01:36:44.102Z,79.49
2023-04-15T01:39:46.586Z,79.31
2023-04-15T01:42:49.377Z,79.01
2023-04-15T01:45:51.898Z,78.29
2023-04-15T01:48:54.673Z,78.49
2023-04-15T01:51:57.484Z,78.58
2023-04-15T01:55:00.006Z,78.83
2023-04-15T01:58:02.688Z,78.90
2023-04-15T02:01:05.243Z,79.39
2023-04-15T02:04:08.301Z,78.76
2023-04-15T02:07:11.592Z,78.12
2023-04-15T02:10:15.231Z,78.80
2023-04-15T02:13:18.057Z,79.07
2023-04-15T02:16:21.660Z,79.27
2023-04-15T02:19:24.675Z,78.83
2023-04-15T02:22:28.099Z,78.98
2023-04-15T02:25:30.996Z,78.76
2023-04-15T02:28:33.977Z,79.14
2023-04-15T02:31:38.242Z,78.80
2023-04-15T02:34:42.738Z,79.55
2023-04-15T02:37:46.490Z,79.96
2023-04-15T02:40:50.519Z,79.61
2023-04-15T02:43:53.714Z,78.94
2023-04-15T02:46:57.335Z,79.32
2023-04-15T02:50:01.865Z,79.26
2023-04-15T02:53:06.052Z,80.15
2023-04-15T02:56:08.912Z,80.09
2023-04-15T02:59:13.098Z,79.88
2023-04-15T03:02:16.276Z,79.53
2023-04-15T03:05:18.859Z,80.01
2023-04-15T03:08:25.818Z,80.13
2023-04-15T03:11:29.555Z,79.17
2023-04-15T03:14:32.958Z,79.79
2023-04-15T03:17:35.859Z,79.52
2023-04-15T03:20:38.851Z,79.58
2023-04-15T03:23:41.673Z,78.74
2023-04-15T03:26:44.934Z,78.50
2023-04-15T03:29:51.948Z,78.51
2023-04-15T03:32:56.483Z,78.75
2023-04-15T03:35:59.034Z,79.09
2023-04-15T03:39:04.447Z,79.84
2023-04-15T03:42:07.718Z,78.87
2023-04-15T03:45:11.045Z,78.90
2023-04-15T03:48:17.871Z,79.14
2023-04-15T03:51:22.335Z,79.43
2023-04-15T03:54:25.841Z,80.19
2023-04-15T03:57:28.303Z,80.04
2023-04-15T04:00:30.782Z,79.82
2023-04-15T04:03:33.837Z,79.72
2023-04-15T04:06:36.704Z,79.87
2023-04-15T04:09:41.749Z,79.49
2023-04-15T04:12:44.244Z,79.88
2023-04-15T04:15:46.809Z,79.44
2023-04-15T04:18:50.061Z,79.16
2023-04-15T04:21:56.733Z,79.65
2023-04-15T04:25:11.032Z,79.11
2023-04-15T04:28:17.095Z,79.26
2023-04-15T04:31:20.250Z,79.21
2023-04-15T04:34:23.428Z,79.22
2023-04-15T04:37:26.173Z,79.01
2023-04-15T04:40:29.053Z,79.35
2023-04-15T04:43:32.014Z,78.91
2023-04-15T04:46:34.580Z,78.48
2023-04-15T04:49:38.230Z,78.44
2023-04-15T04:52:42.031Z,78.86
2023-04-15T04:55:44.588Z,78.62
2023-04-15T04:58:48.119Z,77.58
2023-04-15T05:01:50.955Z,78.73
2023-04-15T05:04:54.892Z,77.97
2023-04-15T05:07:58.462Z,77.89
2023-04-15T05:11:01.992Z,78.93
2023-04-15T05:14:05.418Z,78.51
2023-04-15T05:17:09.129Z,78.40
2023-04-15T05:20:12.526Z,78.32
2023-04-15T05:23:15.499Z,78.16
2023-04-15T05:26:18.847Z,77.10
2023-04-15T05:29:22.340Z,76.62
2023-04-15T05:32:25.263Z,77.56
2023-04-15T05:35:28.020Z,76.21
2023-04-15T05:38:31.226Z,77.70
2023-04-15T05:41:34.791Z,77.90
2023-04-15T05:44:37.614Z,77.45
2023-04-15T05:47:41.124Z,75.66
2023-04-15T05:50:44.061Z,76.21
2023-04-15T05:53:46.838Z,75.90
2023-04-15T05:56:50.796Z,74.88
2023-04-15T05:59:53.755Z,75.30
2023-04-15T06:02:58.366Z,74.71
2023-04-15T06:06:02.772Z,75.72
2023-04-15T06:09:05.689Z,74.88
2023-04-15T06:12:12.472Z,73.92
2023-04-15T06:15:16.010Z,74.11
2023-04-15T06:18:18.550Z,74.87
2023-04-15T06:21:21.265Z,73.19
2023-04-15T06:24:23.912Z,74.08
2023-04-15T06:27:26.892Z,73.23
2023-04-15T06:30:30.211Z,73.02
2023-04-15T06:33:34.095Z,73.11
2023-04-15T06:36:36.849Z,73.52
2023-04-15T06:39:40.722Z,71.93
2023-04-15T06:42:44.400Z,69.89
2023-04-15T06:45:47.794Z,71.31
2023-04-15T06:48:50.473Z,69.91
2023-04-15T06:51:54.546Z,68.75
2023-04-15T06:54:59.992Z,70.79
2023-04-15T06:58:03.183Z,70.05
2023-04-15T07:01:06.158Z,70.04
2023-04-15T07:04:08.950Z,69.91
2023-04-15T07:07:11.701Z,70.70
2023-04-15T07:10:15.981Z,68.09
2023-04-15T07:13:20.220Z,68.80
2023-04-15T07:16:23.258Z,68.47
2023-04-15T07:19:26.763Z,67.26
2023-04-15T07:22:31.872Z,66.13
2023-04-15T07:25:34.601Z,65.15
2023-04-15T07:28:37.604Z,67.41
2023-04-15T07:31:42.572Z,66.60
2023-04-15T07:34:45.232Z,65.62
2023-04-15T07:37:49.397Z,65.46
2023-04-15T07:40:52.663Z,65.33
2023-04-15T07:43:55.455Z,62.70
2023-04-15T07:46:57.894Z,61.66
2023-04-15T07:50:01.176Z,61.53
2023-04-15T07:53:04.469Z,63.35
2023-04-15T07:56:07.456Z,60.00
2023-04-15T07:59:10.869Z,58.07
2023-04-15T08:02:14.877Z,60.21
2023-04-15T08:05:17.462Z,59.51
2023-04-15T08:08:20.870Z,59.15
2023-04-15T08:11:28.062Z,57.60
2023-04-15T08:14:30.817Z,56.82
2023-04-15T08:17:35.928Z,57.44
2023-04-15T08:20:39.028Z,57.66
2023-04-15T08:23:41.624Z,57.44
2023-04-15T08:26:44.432Z,57.46
2023-04-15T08:29:47.224Z,58.31
2023-04-15T08:32:51.323Z,57.40
2023-04-15T08:35:54.242Z,56.93
2023-04-15T08:38:56.747Z,56.89
2023-04-15T08:42:03.606Z,55.78
2023-04-15T08:45:06.577Z,56.25
2023-04-15T08:48:09.682Z,56.68
2023-04-15T08:51:16.295Z,56.53
2023-04-15T08:54:19.938Z,55.45
2023-04-15T08:57:28.073Z,55.38
2023-04-15T09:00:30.821Z,55.71
2023-04-15T09:03:33.805Z,56.24
2023-04-15T09:06:36.633Z,53.72
2023-04-15T09:09:40.317Z,52.49
2023-04-15T09:12:42.881Z,51.81
2023-04-15T09:15:45.798Z,53.48
2023-04-15T09:18:48.790Z,54.06
2023-04-15T09:21:59.813Z,54.26
2023-04-15T09:25:02.268Z,53.94
2023-04-15T09:28:04.804Z,52.74
2023-04-15T09:31:08.465Z,53.62
2023-04-15T09:34:12.112Z,51.35
2023-04-15T09:37:28.981Z,50.97
2023-04-15T09:40:41.964Z,51.30
2023-04-15T09:43:45.226Z,52.47
2023-04-15T09:46:47.956Z,53.26
2023-04-15T09:50:00.496Z,53.52
2023-04-15T09:53:04.373Z,52.04
2023-04-15T09:56:09.076Z,50.58
2023-04-15T09:59:11.566Z,50.53
2023-04-15T10:02:14.584Z,51.63
2023-04-15T10:05:18.052Z,52.12
2023-04-15T10:08:21.924Z,50.72
2023-04-15T10:11:24.776Z,49.89
2023-04-15T10:14:27.396Z,52.22
2023-04-15T10:17:31.812Z,53.24
2023-04-15T10:20:34.382Z,53.93
2023-04-15T10:23:36.852Z,53.17
2023-04-15T10:26:39.352Z,53.84
2023-04-15T10:29:41.801Z,53.18
2023-04-15T10:32:44.774Z,53.61
2023-04-15T10:35:47.679Z,52.99
2023-04-15T10:38:50.200Z,52.54
2023-04-15T10:42:27.502Z,52.65
2023-04-15T10:45:34.794Z,52.35
2023-04-15T10:48:37.338Z,51.04
2023-04-15T10:51:42.276Z,50.25
2023-04-15T10:54:44.928Z,50.43
2023-04-15T10:57:52.684Z,50.64
2023-04-15T11:00:55.537Z,54.56
2023-04-15T11:03:58.167Z,58.48
2023-04-15T11:07:07.239Z,58.49
2023-04-15T11:10:31.869Z,57.43
2023-04-15T11:13:59.791Z,57.28
2023-04-15T11:17:11.151Z,58.82
2023-04-15T11:20:27.185Z,58.37
2023-04-15T11:23:40.815Z,58.35
2023-04-15T11:26:43.303Z,58.40
2023-04-15T11:29:45.690Z,55.99
2023-04-15T11:32:50.251Z,55.21
2023-04-15T11:35:54.349Z,53.35
2023-04-15T11:38:57.929Z,54.50
2023-04-15T11:42:00.580Z,52.27
2023-04-15T11:45:13.569Z,52.86
2023-04-15T11:48:16.483Z,53.95
2023-04-15T11:51:21.927Z,52.25
2023-04-15T11:54:30.896Z,53.77
2023-04-15T11:57:33.377Z,53.45
2023-04-15T12:00:35.960Z,53.81
2023-04-15T12:03:40.314Z,53.69
2023-04-15T12:06:43.145Z,52.21
2023-04-15T12:09:45.864Z,52.99
2023-04-15T12:12:52.741Z,56.00
2023-04-15T12:15:56.175Z,54.96
2023-04-15T12:19:01.080Z,50.77
2023-04-15T12:22:12.264Z,50.27
2023-04-15T12:25:14.944Z,53.23
2023-04-15T12:28:17.577Z,54.89
2023-04-15T12:31:20.549Z,55.77
2023-04-15T12:34:32.384Z,57.22
2023-04-15T12:37:34.777Z,57.31
2023-04-15T12:40:37.158Z,56.09
2023-04-15T12:43:40.747Z,56.27
2023-04-15T12:46:43.503Z,54.92
2023-04-15T12:49:47.209Z,54.51
2023-04-15T12:52:49.950Z,53.49
2023-04-15T12:55:52.728Z,53.74
2023-04-15T12:58:55.266Z,53.76
2023-04-15T13:01:58.605Z,54.69
2023-04-15T13:05:01.394Z,54.28
2023-04-15T13:08:05.352Z,55.52
2023-04-15T13:11:07.795Z,54.47
2023-04-15T13:14:11.944Z,56.09
2023-04-15T13:17:14.547Z,55.95
2023-04-15T13:20:17.584Z,54.49
2023-04-15T13:23:20.307Z,55.16
2023-04-15T13:26:23.978Z,55.28
2023-04-15T13:29:27.024Z,55.41
2023-04-15T13:32:29.466Z,55.81
2023-04-15T13:35:32.713Z,56.32
2023-04-15T13:38:35.837Z,55.93
2023-04-15T13:41:38.206Z,57.42
2023-04-15T13:44:40.808Z,59.12
2023-04-15T13:47:44.227Z,59.11
2023-04-15T13:50:47.033Z,60.23
2023-04-15T13:53:50.141Z,57.88
2023-04-15T13:56:52.568Z,58.43
2023-04-15T13:59:55.663Z,57.29
2023-04-15T14:02:58.461Z,58.37
2023-04-15T14:06:01.217Z,59.37
2023-04-15T14:09:04.304Z,58.65
2023-04-15T14:12:06.946Z,58.23
2023-04-15T14:15:09.933Z,58.62
2023-04-15T14:18:12.541Z,58.72
2023-04-15T14:21:15.068Z,59.92
2023-04-15T14:24:17.931Z,60.16
2023-04-15T14:27:20.738Z,59.34
2023-04-15T14:30:23.163Z,59.71
2023-04-15T14:33:26.459Z,59.20
2023-04-15T14:36:29.586Z,60.20
2023-04-15T14:39:33.483Z,59.51
2023-04-15T14:42:36.800Z,59.36
2023-04-15T14:45:42.170Z,57.44
2023-04-15T14:48:46.960Z,57.16
2023-04-15T14:51:49.562Z,55.38
2023-04-15T14:54:52.367Z,55.63
2023-04-15T14:57:55.064Z,53.94
2023-04-15T15:00:58.527Z,53.35
2023-04-15T15:04:01.398Z,53.88
2023-04-15T15:07:04.233Z,53.66
2023-04-15T15:10:07.279Z,54.05
2023-04-15T15:13:10.774Z,54.75
2023-04-15T15:16:14.649Z,55.22
2023-04-15T15:19:17.222Z,55.53
2023-04-15T15:22:21.338Z,56.58
2023-04-15T15:25:23.933Z,58.02
2023-04-15T15:28:27.364Z,58.93
2023-04-15T15:31:29.910Z,59.15
2023-04-15T15:34:32.473Z,59.04
2023-04-15T15:37:35.701Z,60.08
2023-04-15T15:40:38.017Z,60.96
2023-04-15T15:43:40.450Z,60.85
2023-04-15T15:46:42.873Z,60.92
2023-04-15T15:49:46.612Z,61.96
2023-04-15T15:52:50.161Z,62.36
2023-04-15T15:55:53.987Z,62.24
2023-04-15T15:58:56.710Z,61.69
2023-04-15T16:02:00.405Z,62.64
2023-04-15T16:05:03.156Z,62.54
2023-04-15T16:08:06.248Z,63.41
2023-04-15T16:11:08.774Z,63.41
2023-04-15T16:14:11.709Z,63.75
2023-04-15T16:17:14.190Z,64.61
2023-04-15T16:20:16.924Z,65.54
2023-04-15T16:23:20.279Z,65.66
2023-04-15T16:26:23.474Z,65.55
2023-04-15T16:29:26.306Z,65.01
2023-04-15T16:32:28.868Z,65.74
2023-04-15T16:35:34.475Z,67.27
2023-04-15T16:38:37.306Z,70.15
2023-04-15T16:41:39.862Z,70.83
2023-04-15T16:44:42.374Z,71.48
2023-04-15T16:47:44.990Z,72.82
2023-04-15T16:50:48.040Z,73.49
2023-04-15T16:53:50.892Z,74.41
2023-04-15T16:56:53.460Z,74.08
2023-04-15T16:59:56.277Z,73.82
2023-04-15T17:03:00.335Z,72.95
2023-04-15T17:06:02.966Z,73.32
2023-04-15T17:09:06.695Z,73.40
2023-04-15T17:12:09.607Z,73.06
2023-04-15T17:15:12.328Z,74.03
2023-04-15T17:18:14.977Z,74.07
2023-04-15T17:21:17.984Z,73.80
2023-04-15T17:24:20.560Z,73.56
2023-04-15T17:27:24.814Z,74.08
2023-04-15T17:30:27.710Z,75.51
2023-04-15T17:33:56.295Z,74.81
2023-04-15T17:36:53.817Z,74.59
2023-04-15T17:39:57.248Z,74.02
2023-04-15T17:43:00.217Z,74.03
2023-04-15T17:46:03.253Z,74.53
2023-04-15T17:49:06.839Z,74.99
2023-04-15T17:52:10.001Z,74.43
2023-04-15T17:55:13.032Z,74.71
2023-04-15T17:58:15.606Z,74.21
2023-04-15T18:01:18.197Z,75.80
2023-04-15T18:04:23.243Z,75.71
2023-04-15T18:07:27.676Z,76.13
2023-04-15T18:10:30.302Z,76.00
2023-04-15T18:13:32.965Z,76.45
2023-04-15T18:16:35.752Z,76.40
2023-04-15T18:19:38.559Z,76.69
2023-04-15T18:22:41.428Z,75.64
2023-04-15T18:25:45.285Z,75.92
2023-04-15T18:28:47.750Z,75.10
2023-04-15T18:31:51.473Z,74.84
2023-04-15T18:34:55.633Z,75.63
2023-04-15T18:38:01.194Z,76.81
2023-04-15T18:41:05.508Z,77.00
2023-04-15T18:44:08.173Z,76.53
2023-04-15T18:47:10.682Z,76.68
2023-04-15T18:50:13.588Z,76.46
2023-04-15T18:53:16.896Z,76.27
2023-04-15T18:56:19.166Z,75.90
2023-04-15T18:59:29.686Z,75.34
2023-04-15T19:02:33.258Z,75.70
2023-04-15T19:05:36.445Z,76.54
2023-04-15T19:08:39.232Z,76.60
2023-04-15T19:11:43.796Z,76.38
2023-04-15T19:14:46.815Z,76.94
2023-04-15T19:17:49.525Z,76.69
2023-04-15T19:20:52.921Z,76.69
2023-04-15T19:23:56.606Z,76.64
2023-04-15T19:26:59.333Z,75.86
2023-04-15T19:30:03.528Z,76.30
2023-04-15T19:33:06.269Z,77.09
2023-04-15T19:36:08.766Z,77.03
2023-04-15T19:39:11.802Z,76.65
2023-04-15T19:42:14.612Z,77.38
2023-04-15T19:45:17.234Z,76.87
2023-04-15T19:48:20.436Z,76.80
2023-04-15T19:51:23.986Z,77.49
2023-04-15T19:54:27.117Z,78.10
2023-04-15T19:57:29.764Z,78.34
2023-04-15T20:00:32.589Z,78.79
2023-04-15T20:03:35.559Z,77.76
2023-04-15T20:06:38.208Z,78.63
2023-04-15T20:09:43.978Z,78.26
2023-04-15T20:12:52.245Z,78.86
2023-04-15T20:15:55.851Z,78.95
2023-04-15T20:19:08.595Z,78.85
2023-04-15T20:22:11.054Z,78.64
2023-04-15T20:25:13.712Z,78.63
2023-04-15T20:28:18.184Z,78.11
2023-04-15T20:31:21.870Z,77.67
2023-04-15T20:34:24.469Z,78.39
2023-04-15T20:37:27.011Z,78.54
2023-04-15T20:40:29.555Z,78.46
2023-04-15T20:43:32.258Z,78.11
2023-04-15T20:46:34.836Z,78.60
2023-04-15T20:49:38.130Z,78.39
2023-04-15T20:52:40.494Z,79.18
2023-04-15T20:55:46.000Z,79.50
2023-04-15T20:58:48.500Z,78.69
2023-04-15T21:01:51.731Z,78.98
2023-04-15T21:04:54.278Z,78.46
2023-04-15T21:07:57.006Z,79.12
2023-04-15T21:10:59.662Z,78.20
2023-04-15T21:14:02.435Z,78.75
2023-04-15T21:17:10.797Z,79.10
2023-04-15T21:20:14.414Z,78.82
2023-04-15T21:23:16.864Z,78.95
2023-04-15T21:26:19.277Z,78.65
2023-04-15T21:29:22.268Z,78.28
2023-04-15T21:32:25.667Z,78.30
2023-04-15T21:35:28.977Z,78.77
2023-04-15T21:38:31.405Z,78.35
2023-04-15T21:41:33.779Z,78.09
2023-04-15T21:44:36.250Z,78.13
2023-04-15T21:48:01.249Z,78.79
2023-04-15T21:51:01.932Z,78.54
2023-04-15T21:54:05.360Z,78.52
2023-04-15T21:57:07.934Z,78.35
2023-04-15T22:00:12.024Z,78.51
2023-04-15T22:03:15.162Z,79.71
2023-04-15T22:06:18.028Z,79.45
2023-04-15T22:09:20.606Z,79.46
2023-04-15T22:12:23.711Z,79.11
2023-04-15T22:15:26.230Z,79.93
2023-04-15T22:18:28.762Z,79.34
2023-04-15T22:21:31.982Z,79.51
2023-04-15T22:24:39.841Z,80.17
2023-04-15T22:27:43.684Z,79.33
2023-04-15T22:30:46.587Z,78.50
2023-04-15T22:33:49.513Z,79.22
2023-04-15T22:36:52.301Z,79.51
2023-04-15T22:39:54.692Z,79.55
2023-04-15T22:42:57.159Z,79.33
2023-04-15T22:46:00.925Z,79.47
2023-04-15T22:49:06.289Z,79.83
2023-04-15T22:52:14.428Z,79.74
2023-04-15T22:55:22.736Z,79.75
2023-04-15T22:58:25.238Z,79.64
2023-04-15T23:01:28.001Z,79.65
2023-04-15T23:04:30.883Z,79.81
2023-04-15T23:07:33.423Z,79.74
2023-04-15T23:10:36.153Z,79.98
2023-04-15T23:13:38.936Z,80.47
2023-04-15T23:16:41.592Z,79.83
2023-04-15T23:19:45.274Z,80.70
2023-04-15T23:22:49.102Z,80.29
2023-04-15T23:25:51.814Z,80.09
2023-04-15T23:28:54.390Z,80.28
2023-04-15T23:31:57.233Z,80.08
2023-04-15T23:35:00.133Z,80.07
2023-04-15T23:38:02.764Z,79.75
2023-04-15T23:41:05.355Z,79.13
2023-04-15T23:44:09.658Z,79.59
2023-04-15T23:47:12.286Z,79.85
2023-04-15T23:50:14.783Z,80.36
2023-04-15T23:53:17.660Z,79.65
2023-04-15T23:56:20.967Z,79.64
2023-04-15T23:59:23.344Z,79.91
